Startpagina
METAR-TAF:

METAR-TAF

Vliegvelden :

Büchel, Duitsland

breedte: 50-10N, lengte: 007-04E, hoogte: 478 m

Actueel weer

Dit bericht is 30 minuten geleden gemaakt, om 22:20 UTC
Wind 8 kt uit het oosten
Temperatuur 3°C
Vochtigheid 81%
Druk 1028 hPa
Zicht 10 km of meer

METAR: ETSB 162220Z AUTO 08008KT 9999 // ////// 03/M00 Q1028 ///

Tijdstip: 23:50 (22:50 UTC)

Verwachting

Dit bericht is 11 uur en het 50 minuten geleden gemaakt, om 11:00 UTC
Verwachting geldig van 16 om 11 UTC tot 16 om 18 UTC
Wind 10 kt uit het oosten
Zicht: 1120 m
Weinig wolken op 30000 ft

TAF: ETSB 161100Z 1611/1618 08010KT 9999 NSW FEW300 CANCEL 1120 BY ETGL

Waarnemingen en weersverwachtingen van meer dan 4000 vliegvelden (METAR en TAF).

De beschikbare stations zijn de gele en rode punten op de kaart.

Ga met uw muis naar het station om de naam te zien.

Klik dan om waarnemingen en weersverwachtingen te zien.

kaart wijzigen: klik op de groene knoppen met een zwart kruis om in te zoomen, op de groene knop met een streepje om uit te zoomen of op de groene pijlen voor aangrenzende kaarten.


METAR-TAF: